createdAt,value
2023-02-12T00:01:48.746Z,71.10
2023-02-12T00:04:15.269Z,70.90
2023-02-12T00:06:41.780Z,70.70
2023-02-12T00:09:08.301Z,70.70
2023-02-12T00:11:34.992Z,70.50
2023-02-12T00:14:01.519Z,70.60
2023-02-12T00:16:28.025Z,70.50
2023-02-12T00:18:54.542Z,70.40
2023-02-12T00:21:21.064Z,70.30
2023-02-12T00:23:47.574Z,70.50
2023-02-12T00:26:14.095Z,70.60
2023-02-12T00:28:40.659Z,70.70
2023-02-12T00:31:07.333Z,70.60
2023-02-12T00:33:33.887Z,71.00
2023-02-12T00:36:00.391Z,71.70
2023-02-12T00:38:26.883Z,71.80
2023-02-12T00:40:53.393Z,71.40
2023-02-12T00:43:19.913Z,70.90
2023-02-12T00:45:46.418Z,71.30
2023-02-12T00:48:12.917Z,71.40
2023-02-12T00:50:39.410Z,71.80
2023-02-12T00:53:05.922Z,71.90
2023-02-12T00:55:32.419Z,72.00
2023-02-12T00:57:58.927Z,72.50
2023-02-12T01:00:25.441Z,72.80
2023-02-12T01:02:52.170Z,73.10
2023-02-12T01:05:18.814Z,72.60
2023-02-12T01:07:45.350Z,72.10
2023-02-12T01:10:11.887Z,72.00
2023-02-12T01:12:38.401Z,72.30
2023-02-12T01:15:04.931Z,72.20
2023-02-12T01:17:31.433Z,72.80
2023-02-12T01:19:57.955Z,72.40
2023-02-12T01:22:24.445Z,72.20
2023-02-12T01:24:50.943Z,71.90
2023-02-12T01:27:17.452Z,71.40
2023-02-12T01:29:43.959Z,71.60
2023-02-12T01:32:10.477Z,71.90
2023-02-12T01:34:36.991Z,72.20
2023-02-12T01:37:03.501Z,71.80
2023-02-12T01:39:30.001Z,71.60
2023-02-12T01:41:56.577Z,72.30
2023-02-12T01:44:23.082Z,72.10
2023-02-12T01:46:49.614Z,72.10
2023-02-12T01:49:16.138Z,72.10
2023-02-12T01:51:42.680Z,71.60
2023-02-12T01:54:09.204Z,71.90
2023-02-12T01:56:35.730Z,71.60
2023-02-12T01:59:02.226Z,71.70
2023-02-12T02:01:28.846Z,71.80
2023-02-12T02:03:55.409Z,71.50
2023-02-12T02:06:21.936Z,72.10
2023-02-12T02:08:51.865Z,72.40
2023-02-12T02:11:18.417Z,72.00
2023-02-12T02:13:44.935Z,71.60
2023-02-12T02:16:11.496Z,71.60
2023-02-12T02:18:38.001Z,71.60
2023-02-12T02:21:04.511Z,71.50
2023-02-12T02:23:31.009Z,71.30
2023-02-12T02:25:57.685Z,71.30
2023-02-12T02:28:24.362Z,71.40
2023-02-12T02:30:50.988Z,71.40
2023-02-12T02:33:17.540Z,71.70
2023-02-12T02:35:44.078Z,71.80
2023-02-12T02:38:10.584Z,71.70
2023-02-12T02:40:37.112Z,71.80
2023-02-12T02:43:03.627Z,72.40
2023-02-12T02:45:30.158Z,71.30
2023-02-12T02:47:56.883Z,71.40
2023-02-12T02:50:24.474Z,71.90
2023-02-12T02:52:51.011Z,71.60
2023-02-12T02:55:17.525Z,71.90
2023-02-12T02:57:44.029Z,71.50
2023-02-12T03:00:10.533Z,71.30
2023-02-12T03:02:39.886Z,71.40
2023-02-12T03:05:06.525Z,71.70
2023-02-12T03:07:33.031Z,71.90
2023-02-12T03:09:59.576Z,71.80
2023-02-12T03:12:26.089Z,71.60
2023-02-12T03:14:52.597Z,71.70
2023-02-12T03:17:19.098Z,71.30
2023-02-12T03:19:45.596Z,71.20
2023-02-12T03:22:12.103Z,71.00
2023-02-12T03:24:38.620Z,71.50
2023-02-12T03:27:05.142Z,71.80
2023-02-12T03:29:31.663Z,71.20
2023-02-12T03:31:58.248Z,71.40
2023-02-12T03:34:24.794Z,71.40
2023-02-12T03:36:51.304Z,71.10
2023-02-12T03:39:17.812Z,71.20
2023-02-12T03:41:45.909Z,71.20
2023-02-12T03:44:12.401Z,70.90
2023-02-12T03:46:38.925Z,71.00
2023-02-12T03:49:05.440Z,71.50
2023-02-12T03:51:33.923Z,71.70
2023-02-12T03:54:00.427Z,71.60
2023-02-12T03:56:27.912Z,71.40
2023-02-12T03:58:54.423Z,71.30
2023-02-12T04:01:21.020Z,71.10
2023-02-12T04:03:47.562Z,71.60
2023-02-12T04:06:14.091Z,71.80
2023-02-12T04:08:40.600Z,71.80
2023-02-12T04:11:07.115Z,71.90
2023-02-12T04:13:33.616Z,71.90
2023-02-12T04:16:00.135Z,72.30
2023-02-12T04:18:26.750Z,71.90
2023-02-12T04:20:53.242Z,71.40
2023-02-12T04:23:19.756Z,71.30
2023-02-12T04:25:46.272Z,71.60
2023-02-12T04:28:12.791Z,71.60
2023-02-12T04:30:39.369Z,71.90
2023-02-12T04:33:09.950Z,71.60
2023-02-12T04:35:36.452Z,71.90
2023-02-12T04:38:02.955Z,72.20
2023-02-12T04:40:29.458Z,72.20
2023-02-12T04:42:55.960Z,71.90
2023-02-12T04:45:22.472Z,71.30
2023-02-12T04:47:49.002Z,71.40
2023-02-12T04:50:15.512Z,71.60
2023-02-12T04:52:42.027Z,71.50
2023-02-12T04:55:08.540Z,71.80
2023-02-12T04:57:39.981Z,72.20
2023-02-12T05:00:06.480Z,72.10
2023-02-12T05:02:32.995Z,72.10
2023-02-12T05:04:59.533Z,72.40
2023-02-12T05:07:26.068Z,72.20
2023-02-12T05:09:52.582Z,72.00
2023-02-12T05:12:19.103Z,72.30
2023-02-12T05:14:45.616Z,72.20
2023-02-12T05:17:12.112Z,72.10
2023-02-12T05:19:38.623Z,72.30
2023-02-12T05:22:05.168Z,72.10
2023-02-12T05:24:31.665Z,71.80
2023-02-12T05:26:58.164Z,72.20
2023-02-12T05:29:24.660Z,72.50
2023-02-12T05:31:51.243Z,72.40
2023-02-12T05:34:17.820Z,71.90
2023-02-12T05:36:44.374Z,71.20
2023-02-12T05:39:10.908Z,71.70
2023-02-12T05:41:37.424Z,71.80
2023-02-12T05:44:03.959Z,72.20
2023-02-12T05:46:30.535Z,71.70
2023-02-12T05:48:57.087Z,71.60
2023-02-12T05:51:23.610Z,71.50
2023-02-12T05:53:50.328Z,71.80
2023-02-12T05:56:16.828Z,72.20
2023-02-12T05:58:43.344Z,71.60
2023-02-12T06:01:09.846Z,72.00
2023-02-12T06:03:36.425Z,72.50
2023-02-12T06:06:02.931Z,72.10
2023-02-12T06:08:29.462Z,72.30
2023-02-12T06:10:55.956Z,71.50
2023-02-12T06:13:22.493Z,71.90
2023-02-12T06:15:49.005Z,71.80
2023-02-12T06:18:15.543Z,71.80
2023-02-12T06:20:42.060Z,71.60
2023-02-12T06:23:08.578Z,71.80
2023-02-12T06:25:35.093Z,72.60
2023-02-12T06:28:01.682Z,72.60
2023-02-12T06:30:28.246Z,72.80
2023-02-12T06:32:54.751Z,72.30
2023-02-12T06:35:21.259Z,72.40
2023-02-12T06:37:47.758Z,72.00
2023-02-12T06:40:14.262Z,70.80
2023-02-12T06:42:40.770Z,70.90
2023-02-12T06:45:07.269Z,71.80
2023-02-12T06:47:33.775Z,71.60
2023-02-12T06:50:00.277Z,71.60
2023-02-12T06:52:26.781Z,71.60
2023-02-12T06:54:53.290Z,71.30
2023-02-12T06:57:19.792Z,71.10
2023-02-12T06:59:46.294Z,71.40
2023-02-12T07:02:12.795Z,71.70
2023-02-12T07:04:39.312Z,71.60
2023-02-12T07:07:05.832Z,71.40
2023-02-12T07:09:32.320Z,71.50
2023-02-12T07:11:58.820Z,71.60
2023-02-12T07:14:28.088Z,71.30
2023-02-12T07:16:57.125Z,71.40
2023-02-12T07:19:23.866Z,71.00
2023-02-12T07:21:50.357Z,71.60
2023-02-12T07:24:16.897Z,72.00
2023-02-12T07:26:43.428Z,71.50
2023-02-12T07:29:09.968Z,71.00
2023-02-12T07:31:36.490Z,70.80
2023-02-12T07:34:03.012Z,70.60
2023-02-12T07:36:29.524Z,71.40
2023-02-12T07:38:56.032Z,70.50
2023-02-12T07:41:22.533Z,70.30
2023-02-12T07:43:49.068Z,70.50
2023-02-12T07:46:15.616Z,70.40
2023-02-12T07:48:42.143Z,70.60
2023-02-12T07:51:08.658Z,70.70
2023-02-12T07:53:35.176Z,70.80
2023-02-12T07:56:01.676Z,70.90
2023-02-12T07:58:28.176Z,70.70
2023-02-12T08:00:54.698Z,70.90
2023-02-12T08:03:21.198Z,71.10
2023-02-12T08:05:47.724Z,71.00
2023-02-12T08:08:14.226Z,70.90
2023-02-12T08:10:40.758Z,71.00
2023-02-12T08:13:07.267Z,70.60
2023-02-12T08:15:33.800Z,70.20
2023-02-12T08:18:00.313Z,70.20
2023-02-12T08:20:26.847Z,69.80
2023-02-12T08:22:53.391Z,70.00
2023-02-12T08:25:19.915Z,70.20
2023-02-12T08:27:46.423Z,70.10
2023-02-12T08:30:15.325Z,70.50
2023-02-12T08:32:42.029Z,70.30
2023-02-12T08:35:08.558Z,70.50
2023-02-12T08:37:35.063Z,70.80
2023-02-12T08:40:01.582Z,70.50
2023-02-12T08:42:28.081Z,70.00
2023-02-12T08:44:54.584Z,70.60
2023-02-12T08:47:21.094Z,70.40
2023-02-12T08:49:47.602Z,70.90
2023-02-12T08:52:14.094Z,71.00
2023-02-12T08:54:40.584Z,69.90
2023-02-12T08:57:07.083Z,70.80
2023-02-12T08:59:33.592Z,70.20
2023-02-12T09:02:01.007Z,70.40
2023-02-12T09:04:27.680Z,69.80
2023-02-12T09:06:54.333Z,69.60
2023-02-12T09:09:20.846Z,69.60
2023-02-12T09:11:47.372Z,69.90
2023-02-12T09:14:13.889Z,69.70
2023-02-12T09:16:40.518Z,69.40
2023-02-12T09:19:07.169Z,69.40
2023-02-12T09:21:33.729Z,69.20
2023-02-12T09:24:00.240Z,69.20
2023-02-12T09:26:26.746Z,69.30
2023-02-12T09:28:53.272Z,69.40
2023-02-12T09:31:19.852Z,69.40
2023-02-12T09:33:55.072Z,69.60
2023-02-12T09:36:21.902Z,69.80
2023-02-12T09:38:48.400Z,69.70
2023-02-12T09:41:14.894Z,69.60
2023-02-12T09:43:41.430Z,69.60
2023-02-12T09:46:08.011Z,69.70
2023-02-12T09:48:34.533Z,69.70
2023-02-12T09:51:01.067Z,69.90
2023-02-12T09:53:27.582Z,69.90
2023-02-12T09:55:54.421Z,70.00
2023-02-12T09:58:22.177Z,70.00
2023-02-12T10:00:48.717Z,69.80
2023-02-12T10:03:15.224Z,69.70
2023-02-12T10:05:41.785Z,69.70
2023-02-12T10:08:08.281Z,69.70
2023-02-12T10:10:34.819Z,69.70
2023-02-12T10:13:01.321Z,69.70
2023-02-12T10:15:27.867Z,69.70
2023-02-12T10:17:54.385Z,69.60
2023-02-12T10:20:20.932Z,69.80
2023-02-12T10:22:56.536Z,69.50
2023-02-12T10:25:23.763Z,69.70
2023-02-12T10:27:50.289Z,69.60
2023-02-12T10:30:16.795Z,69.90
2023-02-12T10:32:43.330Z,70.00
2023-02-12T10:35:09.861Z,69.60
2023-02-12T10:37:36.361Z,69.70
2023-02-12T10:40:02.869Z,69.70
2023-02-12T10:42:29.370Z,69.80
2023-02-12T10:44:55.862Z,69.60
2023-02-12T10:47:22.377Z,69.60
2023-02-12T10:49:48.864Z,69.70
2023-02-12T10:52:15.368Z,69.70
2023-02-12T10:54:41.887Z,69.80
2023-02-12T10:57:08.403Z,69.80
2023-02-12T10:59:35.860Z,69.80
2023-02-12T11:02:02.444Z,69.70
2023-02-12T11:04:28.958Z,69.70
2023-02-12T11:06:55.468Z,69.80
2023-02-12T11:09:21.978Z,69.90
2023-02-12T11:11:49.541Z,69.80
2023-02-12T11:14:16.646Z,69.80
2023-02-12T11:16:43.170Z,69.90
2023-02-12T11:19:09.677Z,69.90
2023-02-12T11:21:36.206Z,69.90
2023-02-12T11:24:04.372Z,69.60
2023-02-12T11:26:31.589Z,69.80
2023-02-12T11:28:58.198Z,69.80
2023-02-12T11:31:24.916Z,69.90
2023-02-12T11:33:51.447Z,69.90
2023-02-12T11:36:17.977Z,69.90
2023-02-12T11:38:44.482Z,69.90
2023-02-12T11:41:10.989Z,70.00
2023-02-12T11:43:37.497Z,70.00
2023-02-12T11:46:04.620Z,70.00
2023-02-12T11:48:31.380Z,70.00
2023-02-12T11:50:57.884Z,70.00
2023-02-12T11:53:28.328Z,69.80
2023-02-12T11:55:54.815Z,69.90
2023-02-12T11:58:21.313Z,70.00
2023-02-12T12:00:47.875Z,69.90
2023-02-12T12:03:14.379Z,69.70
2023-02-12T12:05:40.911Z,69.80
2023-02-12T12:08:07.430Z,70.00
2023-02-12T12:10:33.932Z,69.90
2023-02-12T12:13:00.441Z,69.70
2023-02-12T12:15:26.959Z,69.70
2023-02-12T12:17:53.470Z,69.70
2023-02-12T12:20:19.979Z,69.80
2023-02-12T12:22:46.477Z,69.80
2023-02-12T12:25:12.972Z,69.70
2023-02-12T12:27:39.621Z,69.70
2023-02-12T12:30:06.121Z,69.70
2023-02-12T12:32:32.630Z,69.70
2023-02-12T12:34:59.143Z,69.70
2023-02-12T12:37:25.662Z,69.60
2023-02-12T12:39:52.425Z,69.60
2023-02-12T12:42:18.971Z,69.70
2023-02-12T12:44:45.462Z,69.40
2023-02-12T12:47:11.990Z,70.00
2023-02-12T12:49:38.510Z,70.10
2023-02-12T12:52:05.014Z,70.00
2023-02-12T12:54:31.525Z,70.00
2023-02-12T12:56:58.022Z,70.00
2023-02-12T12:59:24.531Z,70.00
2023-02-12T13:01:51.022Z,69.80
2023-02-12T13:04:17.538Z,69.70
2023-02-12T13:06:44.034Z,69.70
2023-02-12T13:09:10.533Z,69.70
2023-02-12T13:11:37.028Z,69.70
2023-02-12T13:14:03.627Z,69.70
2023-02-12T13:16:30.175Z,69.70
2023-02-12T13:18:56.721Z,69.80
2023-02-12T13:21:23.221Z,69.80
2023-02-12T13:23:49.748Z,69.70
2023-02-12T13:26:16.256Z,69.80
2023-02-12T13:28:42.807Z,69.80
2023-02-12T13:31:24.937Z,69.80
2023-02-12T13:33:55.832Z,69.80
2023-02-12T13:36:22.332Z,69.70
2023-02-12T13:38:48.876Z,69.80
2023-02-12T13:41:15.375Z,69.70
2023-02-12T13:43:46.401Z,69.80
2023-02-12T13:46:12.896Z,69.70
2023-02-12T13:48:39.413Z,69.70
2023-02-12T13:51:10.591Z,69.70
2023-02-12T13:53:37.103Z,69.70
2023-02-12T13:56:03.616Z,69.70
2023-02-12T13:58:30.175Z,69.60
2023-02-12T14:00:56.664Z,69.70
2023-02-12T14:03:23.174Z,69.60
2023-02-12T14:05:49.679Z,69.60
2023-02-12T14:08:16.216Z,69.50
2023-02-12T14:10:42.735Z,70.00
2023-02-12T14:13:09.300Z,70.00
2023-02-12T14:15:35.855Z,70.80
2023-02-12T14:18:02.354Z,69.90
2023-02-12T14:20:28.924Z,70.10
2023-02-12T14:22:55.429Z,70.20
2023-02-12T14:25:21.947Z,70.10
2023-02-12T14:27:48.448Z,70.00
2023-02-12T14:30:14.980Z,69.80
2023-02-12T14:32:41.478Z,69.80
2023-02-12T14:35:08.003Z,69.70
2023-02-12T14:37:36.592Z,69.70
2023-02-12T14:40:04.453Z,69.70
2023-02-12T14:42:31.009Z,69.70
2023-02-12T14:44:57.529Z,69.70
2023-02-12T14:47:24.031Z,69.70
2023-02-12T14:49:50.553Z,69.70
2023-02-12T14:52:17.051Z,69.70
2023-02-12T14:54:43.580Z,69.70
2023-02-12T14:57:10.087Z,69.80
2023-02-12T14:59:36.622Z,69.60
2023-02-12T15:02:03.127Z,69.70
2023-02-12T15:04:29.662Z,69.70
2023-02-12T15:06:56.174Z,69.60
2023-02-12T15:09:22.680Z,69.70
2023-02-12T15:11:49.203Z,69.70
2023-02-12T15:14:15.701Z,69.60
2023-02-12T15:16:42.203Z,69.60
2023-02-12T15:19:08.706Z,69.50
2023-02-12T15:21:35.265Z,69.60
2023-02-12T15:24:01.778Z,69.50
2023-02-12T15:26:28.484Z,69.40
2023-02-12T15:28:55.026Z,69.70
2023-02-12T15:31:21.691Z,70.00
2023-02-12T15:33:48.512Z,69.80
2023-02-12T15:36:16.474Z,70.00
2023-02-12T15:38:42.963Z,69.90
2023-02-12T15:41:09.645Z,69.80
2023-02-12T15:43:36.190Z,69.60
2023-02-12T15:46:02.752Z,69.90
2023-02-12T15:48:29.392Z,70.10
2023-02-12T15:50:55.901Z,69.70
2023-02-12T15:53:22.406Z,69.80
2023-02-12T15:55:48.969Z,69.80
2023-02-12T15:58:15.601Z,69.80
2023-02-12T16:00:42.124Z,69.70
2023-02-12T16:03:08.626Z,69.60
2023-02-12T16:05:35.517Z,69.60
2023-02-12T16:08:02.074Z,69.80
2023-02-12T16:10:28.610Z,69.80
2023-02-12T16:12:55.122Z,69.70
2023-02-12T16:15:21.670Z,69.90
2023-02-12T16:17:48.191Z,70.00
2023-02-12T16:20:14.734Z,70.10
2023-02-12T16:22:41.280Z,70.10
2023-02-12T16:25:16.601Z,70.20
2023-02-12T16:27:43.178Z,70.10
2023-02-12T16:30:10.488Z,70.00
2023-02-12T16:32:37.002Z,70.20
2023-02-12T16:35:03.512Z,70.30
2023-02-12T16:37:30.040Z,70.50
2023-02-12T16:39:56.538Z,70.50
2023-02-12T16:42:23.058Z,70.20
2023-02-12T16:44:49.554Z,70.10
2023-02-12T16:47:16.054Z,70.00
2023-02-12T16:49:42.555Z,70.00
2023-02-12T16:52:09.079Z,70.00
2023-02-12T16:54:35.591Z,69.90
2023-02-12T16:57:02.117Z,69.90
2023-02-12T16:59:28.627Z,70.00
2023-02-12T17:01:55.149Z,69.90
2023-02-12T17:04:21.654Z,69.90
2023-02-12T17:06:48.184Z,70.00
2023-02-12T17:09:14.700Z,69.90
2023-02-12T17:11:41.238Z,69.90
2023-02-12T17:14:07.736Z,69.90
2023-02-12T17:16:34.278Z,69.80
2023-02-12T17:19:00.813Z,69.80
2023-02-12T17:21:27.365Z,69.90
2023-02-12T17:23:53.889Z,69.90
2023-02-12T17:26:20.489Z,69.90
2023-02-12T17:28:46.988Z,69.90
2023-02-12T17:31:13.539Z,69.80
2023-02-12T17:33:40.070Z,69.70
2023-02-12T17:36:06.637Z,69.60
2023-02-12T17:38:33.147Z,69.70
2023-02-12T17:40:59.737Z,69.60
2023-02-12T17:43:26.261Z,69.60
2023-02-12T17:45:52.823Z,69.60
2023-02-12T17:48:19.387Z,69.60
2023-02-12T17:50:45.917Z,69.70
2023-02-12T17:53:12.406Z,69.60
2023-02-12T17:55:38.939Z,69.60
2023-02-12T17:58:05.439Z,69.80
2023-02-12T18:00:31.940Z,69.90
2023-02-12T18:02:58.454Z,70.00
2023-02-12T18:05:24.941Z,70.00
2023-02-12T18:07:51.538Z,69.90
2023-02-12T18:10:18.038Z,69.80
2023-02-12T18:12:44.573Z,69.80
2023-02-12T18:15:11.089Z,69.50
2023-02-12T18:17:37.599Z,69.50
2023-02-12T18:20:04.111Z,69.50
2023-02-12T18:22:30.640Z,69.40
2023-02-12T18:24:57.137Z,69.50
2023-02-12T18:27:23.644Z,69.40
2023-02-12T18:29:50.150Z,69.50
2023-02-12T18:32:16.651Z,69.40
2023-02-12T18:34:43.156Z,69.40
2023-02-12T18:37:09.705Z,69.50
2023-02-12T18:39:36.216Z,69.50
2023-02-12T18:42:04.644Z,69.50
2023-02-12T18:44:31.145Z,69.50
2023-02-12T18:46:57.652Z,69.40
2023-02-12T18:49:24.162Z,69.40
2023-02-12T18:51:50.852Z,69.40
2023-02-12T18:54:17.362Z,69.30
2023-02-12T18:56:43.881Z,69.50
2023-02-12T18:59:10.413Z,69.50
2023-02-12T19:01:37.042Z,69.50
2023-02-12T19:04:03.599Z,69.40
2023-02-12T19:06:30.096Z,69.40
2023-02-12T19:08:56.605Z,69.50
2023-02-12T19:11:23.119Z,69.20
2023-02-12T19:13:49.676Z,69.40
2023-02-12T19:16:16.388Z,69.40
2023-02-12T19:18:42.930Z,69.40
2023-02-12T19:21:09.447Z,69.40
2023-02-12T19:23:35.983Z,69.40
2023-02-12T19:26:02.479Z,69.50
2023-02-12T19:28:29.029Z,69.30
2023-02-12T19:30:56.003Z,69.40
2023-02-12T19:33:22.710Z,69.40
2023-02-12T19:35:49.205Z,69.30
2023-02-12T19:38:15.741Z,69.30
2023-02-12T19:40:42.246Z,69.40
2023-02-12T19:43:08.778Z,69.40
2023-02-12T19:45:35.269Z,69.40
2023-02-12T19:48:01.798Z,69.50
2023-02-12T19:50:28.317Z,69.30
2023-02-12T19:52:54.863Z,69.40
2023-02-12T19:55:21.361Z,69.40
2023-02-12T19:57:47.904Z,69.30
2023-02-12T20:00:14.424Z,69.30
2023-02-12T20:02:43.635Z,69.20
2023-02-12T20:05:10.466Z,69.20
2023-02-12T20:07:36.966Z,69.20
2023-02-12T20:10:03.493Z,69.30
2023-02-12T20:12:29.998Z,69.20
2023-02-12T20:14:56.500Z,69.10
2023-02-12T20:17:23.007Z,69.00
2023-02-12T20:19:49.536Z,69.10
2023-02-12T20:22:16.053Z,69.00
2023-02-12T20:24:42.554Z,69.10
2023-02-12T20:27:09.054Z,69.30
2023-02-12T20:29:35.560Z,69.10
2023-02-12T20:32:02.091Z,69.00
2023-02-12T20:34:28.980Z,69.10
2023-02-12T20:36:55.580Z,69.10
2023-02-12T20:39:22.091Z,69.20
2023-02-12T20:41:48.598Z,69.10
2023-02-12T20:44:15.127Z,69.00
2023-02-12T20:46:41.627Z,69.30
2023-02-12T20:49:08.136Z,69.10
2023-02-12T20:51:34.634Z,69.00
2023-02-12T20:54:01.137Z,69.00
2023-02-12T20:56:27.630Z,69.10
2023-02-12T20:58:54.168Z,69.00
2023-02-12T21:01:22.741Z,69.00
2023-02-12T21:03:49.295Z,69.20
2023-02-12T21:06:15.817Z,69.00
2023-02-12T21:08:42.324Z,69.10
2023-02-12T21:11:08.839Z,69.00
2023-02-12T21:13:35.340Z,68.90
2023-02-12T21:16:01.917Z,68.90
2023-02-12T21:18:28.426Z,68.90
2023-02-12T21:20:54.926Z,69.00
2023-02-12T21:23:21.425Z,68.90
2023-02-12T21:25:47.927Z,68.90
2023-02-12T21:28:14.450Z,68.80
2023-02-12T21:30:40.967Z,68.70
2023-02-12T21:33:07.467Z,68.70
2023-02-12T21:35:33.948Z,68.80
2023-02-12T21:38:00.425Z,68.80
2023-02-12T21:40:26.929Z,68.80
2023-02-12T21:42:53.390Z,68.60
2023-02-12T21:45:19.960Z,68.70
2023-02-12T21:47:46.433Z,69.50
2023-02-12T21:50:12.915Z,68.90
2023-02-12T21:52:39.397Z,68.80
2023-02-12T21:55:05.895Z,68.80
2023-02-12T21:57:32.385Z,68.80
2023-02-12T21:59:58.907Z,69.50
2023-02-12T22:02:25.498Z,68.70
2023-02-12T22:04:52.051Z,68.70
2023-02-12T22:07:18.535Z,68.70
2023-02-12T22:09:45.202Z,68.60
2023-02-12T22:12:11.690Z,68.50
2023-02-12T22:14:38.191Z,68.50
2023-02-12T22:17:04.661Z,68.50
2023-02-12T22:19:31.159Z,68.40
2023-02-12T22:21:57.633Z,68.50
2023-02-12T22:24:24.142Z,68.40
2023-02-12T22:26:50.631Z,68.60
2023-02-12T22:29:17.113Z,68.40
2023-02-12T22:31:43.713Z,68.50
2023-02-12T22:34:10.308Z,68.40
2023-02-12T22:36:36.814Z,68.30
2023-02-12T22:39:03.273Z,68.30
2023-02-12T22:41:29.767Z,68.30
2023-02-12T22:43:56.252Z,68.40
2023-02-12T22:46:22.722Z,68.30
2023-02-12T22:48:49.184Z,68.40
2023-02-12T22:51:15.662Z,68.30
2023-02-12T22:53:42.152Z,68.30
2023-02-12T22:56:08.644Z,68.30
2023-02-12T22:58:35.121Z,68.20
2023-02-12T23:01:04.829Z,68.20
2023-02-12T23:03:31.372Z,68.20
2023-02-12T23:05:57.879Z,68.30
2023-02-12T23:08:24.363Z,68.30
2023-02-12T23:10:50.844Z,68.20
2023-02-12T23:13:29.037Z,68.20
2023-02-12T23:15:56.264Z,68.20
2023-02-12T23:18:22.729Z,68.10
2023-02-12T23:20:49.223Z,68.20
2023-02-12T23:23:15.701Z,68.30
2023-02-12T23:25:42.207Z,68.20
2023-02-12T23:28:08.746Z,68.10
2023-02-12T23:30:35.318Z,68.10
2023-02-12T23:33:01.825Z,68.20
2023-02-12T23:35:28.367Z,68.10
2023-02-12T23:37:54.846Z,68.20
2023-02-12T23:40:21.350Z,68.10
2023-02-12T23:42:47.831Z,68.10
2023-02-12T23:45:14.335Z,68.10
2023-02-12T23:47:40.823Z,68.00
2023-02-12T23:50:07.327Z,68.10
2023-02-12T23:52:33.818Z,68.00
2023-02-12T23:55:00.302Z,68.00
2023-02-12T23:57:26.782Z,68.00
2023-02-12T23:59:53.257Z,68.00
